createdAt,value
2023-01-29T00:01:58.102Z,10.25
2023-01-29T00:05:13.038Z,8.18
2023-01-29T00:08:23.923Z,4.05
2023-01-29T00:11:27.025Z,8.68
2023-01-29T00:14:29.990Z,11.40
2023-01-29T00:17:33.755Z,8.70
2023-01-29T00:20:37.051Z,7.57
2023-01-29T00:23:40.663Z,5.38
2023-01-29T00:26:43.917Z,4.40
2023-01-29T00:30:08.042Z,6.80
2023-01-29T00:33:13.979Z,8.02
2023-01-29T00:36:18.966Z,8.98
2023-01-29T00:39:31.451Z,7.40
2023-01-29T00:43:00.962Z,7.43
2023-01-29T00:46:07.091Z,9.00
2023-01-29T00:52:32.394Z,5.85
2023-01-29T00:55:36.358Z,7.65
2023-01-29T00:58:40.638Z,7.82
2023-01-29T01:02:02.975Z,7.40
2023-01-29T01:05:08.269Z,7.82
2023-01-29T01:08:30.933Z,7.93
2023-01-29T01:11:34.813Z,8.35
2023-01-29T01:14:38.910Z,10.30
2023-01-29T01:17:42.564Z,11.75
2023-01-29T01:20:46.535Z,9.70
2023-01-29T01:23:52.436Z,10.55
2023-01-29T01:26:56.052Z,10.70
2023-01-29T01:29:59.968Z,11.40
2023-01-29T01:33:03.520Z,11.43
2023-01-29T01:36:10.564Z,10.15
2023-01-29T01:39:14.194Z,9.60
2023-01-29T01:42:18.545Z,10.23
2023-01-29T01:45:36.566Z,10.38
2023-01-29T01:48:40.854Z,5.70
2023-01-29T01:51:48.732Z,10.50
2023-01-29T01:54:52.781Z,12.20
2023-01-29T01:58:07.951Z,13.30
2023-01-29T02:01:13.676Z,12.40
2023-01-29T02:04:39.568Z,13.50
2023-01-29T02:08:04.754Z,12.20
2023-01-29T02:11:08.740Z,15.68
2023-01-29T02:17:33.734Z,22.42
2023-01-29T02:20:38.028Z,22.55
2023-01-29T02:24:13.539Z,24.80
2023-01-29T02:27:37.647Z,17.83
2023-01-29T02:31:09.989Z,23.80
2023-01-29T02:34:28.680Z,18.75
2023-01-29T02:37:43.184Z,17.30
2023-01-29T02:40:55.729Z,18.67
2023-01-29T02:44:16.844Z,16.75
2023-01-29T02:47:32.989Z,15.63
2023-01-29T02:50:55.630Z,9.23
2023-01-29T02:54:17.709Z,10.60
2023-01-29T02:57:29.612Z,11.93
2023-01-29T03:00:39.352Z,9.50
2023-01-29T03:03:46.574Z,12.68
2023-01-29T03:06:55.246Z,15.45
2023-01-29T03:09:59.951Z,19.13
2023-01-29T03:13:09.707Z,22.48
2023-01-29T03:16:52.544Z,16.05
2023-01-29T03:19:57.821Z,13.95
2023-01-29T03:23:15.120Z,14.38
2023-01-29T03:26:40.832Z,13.85
2023-01-29T03:30:07.349Z,14.85
2023-01-29T03:33:47.601Z,12.38
2023-01-29T03:37:23.129Z,13.48
2023-01-29T03:40:30.029Z,14.55
2023-01-29T03:43:54.636Z,6.78
2023-01-29T03:47:14.337Z,8.43
2023-01-29T03:53:35.981Z,5.93
2023-01-29T03:57:12.026Z,7.47
2023-01-29T04:00:23.715Z,5.70
2023-01-29T04:03:58.072Z,8.27
2023-01-29T04:07:10.022Z,7.20
2023-01-29T04:10:18.800Z,7.70
2023-01-29T04:13:24.442Z,5.47
2023-01-29T04:16:39.712Z,9.00
2023-01-29T04:19:57.650Z,7.00
2023-01-29T04:23:01.382Z,9.05
2023-01-29T04:26:30.062Z,6.20
2023-01-29T04:29:54.445Z,5.32
2023-01-29T04:33:17.514Z,4.32
2023-01-29T04:37:00.753Z,2.80
2023-01-29T04:40:09.710Z,3.30
2023-01-29T04:43:45.444Z,2.83
2023-01-29T04:47:25.267Z,4.20
2023-01-29T04:50:40.865Z,3.00
2023-01-29T04:53:57.068Z,4.18
2023-01-29T04:57:20.049Z,4.03
2023-01-29T05:00:26.568Z,3.53
2023-01-29T05:03:33.352Z,4.88
2023-01-29T05:06:38.938Z,4.32
2023-01-29T05:09:46.051Z,3.50
2023-01-29T05:12:55.993Z,2.90
2023-01-29T05:16:16.944Z,3.92
2023-01-29T05:19:20.514Z,4.05
2023-01-29T05:22:24.968Z,4.97
2023-01-29T05:25:31.511Z,4.10
2023-01-29T05:28:34.699Z,2.78
2023-01-29T05:31:37.534Z,2.90
2023-01-29T05:34:40.534Z,2.40
2023-01-29T05:37:44.199Z,2.33
2023-01-29T05:40:47.625Z,1.88
2023-01-29T05:43:50.584Z,2.03
2023-01-29T05:46:54.201Z,1.63
2023-01-29T05:49:58.197Z,1.75
2023-01-29T05:53:02.648Z,2.25
2023-01-29T05:56:06.653Z,3.10
2023-01-29T05:59:09.962Z,2.42
2023-01-29T06:02:13.256Z,3.13
2023-01-29T06:05:16.968Z,1.65
2023-01-29T06:08:21.032Z,2.45
2023-01-29T06:11:25.200Z,2.15
2023-01-29T06:14:29.030Z,2.00
2023-01-29T06:17:32.005Z,2.90
2023-01-29T06:20:35.282Z,2.33
2023-01-29T06:23:38.367Z,2.10
2023-01-29T06:26:41.332Z,1.40
2023-01-29T06:29:44.162Z,1.83
2023-01-29T06:32:47.476Z,2.85
2023-01-29T06:35:50.289Z,2.10
2023-01-29T06:38:54.229Z,1.80
2023-01-29T06:41:57.458Z,3.03
2023-01-29T06:45:00.477Z,1.65
2023-01-29T06:48:03.426Z,1.60
2023-01-29T06:51:08.765Z,2.03
2023-01-29T06:54:11.968Z,2.45
2023-01-29T06:57:15.252Z,2.10
2023-01-29T07:00:20.137Z,3.20
2023-01-29T07:03:23.795Z,2.88
2023-01-29T07:06:30.914Z,2.25
2023-01-29T07:09:34.958Z,2.10
2023-01-29T07:12:38.106Z,1.88
2023-01-29T07:15:41.691Z,2.47
2023-01-29T07:18:44.625Z,3.78
2023-01-29T07:21:48.642Z,2.65
2023-01-29T07:24:52.101Z,2.80
2023-01-29T07:27:56.068Z,3.55
2023-01-29T07:31:00.285Z,3.72
2023-01-29T07:34:04.551Z,4.55
2023-01-29T07:37:08.301Z,3.53
2023-01-29T07:40:12.776Z,3.35
2023-01-29T07:43:17.317Z,3.00
2023-01-29T07:46:21.209Z,3.70
2023-01-29T07:49:24.821Z,2.72
2023-01-29T07:52:29.947Z,2.50
2023-01-29T07:55:35.048Z,3.47
2023-01-29T07:58:38.351Z,3.90
2023-01-29T08:01:42.314Z,4.85
2023-01-29T08:04:45.901Z,5.72
2023-01-29T08:08:06.116Z,7.80
2023-01-29T08:11:10.413Z,7.57
2023-01-29T08:14:14.424Z,9.05
2023-01-29T08:17:17.872Z,8.90
2023-01-29T08:20:22.355Z,8.60
2023-01-29T08:23:25.571Z,7.32
2023-01-29T08:26:29.724Z,8.13
2023-01-29T08:29:32.971Z,9.02
2023-01-29T08:32:37.235Z,9.27
2023-01-29T08:35:41.783Z,15.48
2023-01-29T08:38:46.113Z,9.90
2023-01-29T08:41:49.692Z,13.50
2023-01-29T08:44:53.267Z,14.20
2023-01-29T08:47:56.999Z,18.48
2023-01-29T08:51:03.167Z,17.27
2023-01-29T08:54:06.807Z,16.08
2023-01-29T08:57:10.471Z,13.95
2023-01-29T09:00:15.936Z,18.48
2023-01-29T09:03:20.074Z,16.45
2023-01-29T09:06:23.186Z,23.58
2023-01-29T09:09:27.081Z,21.75
2023-01-29T09:12:31.264Z,21.02
2023-01-29T09:15:34.924Z,27.40
2023-01-29T09:18:38.915Z,25.40
2023-01-29T09:21:42.497Z,11.68
2023-01-29T09:24:46.372Z,8.55
2023-01-29T09:27:49.617Z,7.78
2023-01-29T09:30:53.576Z,6.85
2023-01-29T09:33:57.272Z,8.63
2023-01-29T09:37:00.914Z,3.65
2023-01-29T09:40:04.651Z,6.53
2023-01-29T09:43:35.587Z,11.50
2023-01-29T09:46:43.830Z,10.23
2023-01-29T09:50:28.974Z,8.38
2023-01-29T09:53:43.981Z,10.52
2023-01-29T09:56:49.163Z,8.25
2023-01-29T09:59:55.636Z,11.50
2023-01-29T10:03:32.229Z,9.82
2023-01-29T10:10:36.897Z,8.68
2023-01-29T10:14:16.214Z,5.25
2023-01-29T10:17:29.312Z,6.35
2023-01-29T10:21:05.673Z,12.95
2023-01-29T10:24:38.815Z,10.32
2023-01-29T10:27:51.950Z,9.65
2023-01-29T10:31:10.338Z,9.98
2023-01-29T10:34:24.656Z,9.77
2023-01-29T10:37:41.640Z,6.03
2023-01-29T10:40:57.132Z,7.75
2023-01-29T10:44:03.266Z,8.82
2023-01-29T10:47:53.157Z,4.37
2023-01-29T10:50:59.277Z,1.92
2023-01-29T10:54:14.727Z,4.40
2023-01-29T10:57:22.169Z,4.90
2023-01-29T11:00:31.663Z,6.72
2023-01-29T11:03:35.870Z,6.25
2023-01-29T11:06:39.498Z,7.65
2023-01-29T11:10:01.694Z,9.50
2023-01-29T11:13:06.339Z,7.15
2023-01-29T11:16:12.015Z,8.50
2023-01-29T11:19:16.791Z,8.98
2023-01-29T11:22:29.826Z,6.88
2023-01-29T11:25:33.416Z,13.43
2023-01-29T11:28:39.757Z,11.20
2023-01-29T11:31:43.696Z,13.95
2023-01-29T11:35:17.745Z,14.93
2023-01-29T11:38:29.344Z,11.50
2023-01-29T11:41:44.402Z,10.27
2023-01-29T11:44:47.848Z,10.60
2023-01-29T11:47:56.826Z,9.30
2023-01-29T11:51:01.910Z,11.15
2023-01-29T11:54:06.331Z,11.25
2023-01-29T11:57:26.978Z,12.32
2023-01-29T12:00:34.061Z,10.35
2023-01-29T12:03:47.483Z,8.07
2023-01-29T12:06:53.792Z,7.45
2023-01-29T12:09:59.637Z,12.77
2023-01-29T12:13:12.709Z,11.82
2023-01-29T12:16:49.649Z,18.95
2023-01-29T12:20:02.114Z,38.72
2023-01-29T12:23:25.118Z,31.35
2023-01-29T12:26:43.964Z,7.50
2023-01-29T12:29:59.358Z,43.05
2023-01-29T12:33:20.514Z,42.90
2023-01-29T12:36:34.558Z,37.25
2023-01-29T12:39:38.428Z,27.58
2023-01-29T12:42:47.869Z,15.82
2023-01-29T12:45:55.050Z,19.65
2023-01-29T12:49:04.028Z,15.85
2023-01-29T12:52:07.729Z,23.25
2023-01-29T12:55:18.427Z,25.17
2023-01-29T12:58:44.382Z,13.82
2023-01-29T13:01:57.744Z,16.00
2023-01-29T13:05:11.419Z,12.25
2023-01-29T13:08:40.583Z,12.85
2023-01-29T13:12:18.157Z,14.30
2023-01-29T13:15:44.950Z,24.70
2023-01-29T13:18:54.589Z,25.08
2023-01-29T13:22:02.210Z,33.00
2023-01-29T13:25:06.596Z,28.35
2023-01-29T13:28:26.562Z,38.33
2023-01-29T13:31:35.531Z,47.38
2023-01-29T13:34:46.735Z,43.05
2023-01-29T13:37:53.954Z,44.85
2023-01-29T13:41:03.064Z,34.40
2023-01-29T13:44:09.719Z,23.85
2023-01-29T13:47:24.602Z,17.08
2023-01-29T13:50:38.497Z,12.35
2023-01-29T13:53:43.813Z,26.15
2023-01-29T13:57:00.134Z,14.82
2023-01-29T14:00:04.054Z,14.13
2023-01-29T14:03:09.735Z,20.80
2023-01-29T14:06:38.911Z,22.50
2023-01-29T14:09:42.531Z,20.33
2023-01-29T14:12:47.249Z,18.63
2023-01-29T14:15:59.905Z,15.60
2023-01-29T14:19:05.937Z,14.75
2023-01-29T14:22:23.977Z,12.95
2023-01-29T14:25:36.093Z,16.05
2023-01-29T14:28:41.240Z,12.68
2023-01-29T14:31:53.796Z,18.95
2023-01-29T14:35:18.097Z,22.08
2023-01-29T14:38:27.150Z,21.73
2023-01-29T14:41:32.596Z,20.60
2023-01-29T14:44:45.247Z,27.45
2023-01-29T14:47:48.433Z,26.52
2023-01-29T14:50:53.980Z,28.65
2023-01-29T14:54:03.661Z,25.98
2023-01-29T14:57:13.212Z,21.70
2023-01-29T15:00:27.897Z,18.10
2023-01-29T15:03:46.345Z,17.38
2023-01-29T15:07:08.403Z,16.02
2023-01-29T15:10:23.491Z,17.60
2023-01-29T15:13:43.177Z,15.77
2023-01-29T15:17:23.821Z,16.90
2023-01-29T15:20:29.999Z,19.02
2023-01-29T15:23:35.249Z,20.80
2023-01-29T15:26:39.595Z,19.77
2023-01-29T15:29:44.939Z,17.20
2023-01-29T15:32:50.018Z,17.35
2023-01-29T15:36:07.304Z,16.10
2023-01-29T15:39:14.436Z,17.90
2023-01-29T15:42:22.387Z,14.35
2023-01-29T15:45:33.980Z,16.50
2023-01-29T15:48:41.591Z,14.77
2023-01-29T15:51:47.996Z,17.27
2023-01-29T15:54:52.198Z,17.30
2023-01-29T15:57:56.377Z,14.82
2023-01-29T16:01:01.338Z,16.17
2023-01-29T16:04:05.711Z,17.27
2023-01-29T16:07:08.807Z,43.00
2023-01-29T16:10:22.313Z,46.92
2023-01-29T16:13:29.812Z,44.45
2023-01-29T16:19:39.806Z,26.73
2023-01-29T16:22:43.474Z,26.35
2023-01-29T16:25:47.277Z,29.48
2023-01-29T16:28:51.797Z,35.72
2023-01-29T16:32:01.446Z,29.92
2023-01-29T16:35:06.405Z,43.65
2023-01-29T16:38:32.119Z,50.72
2023-01-29T16:41:39.187Z,40.95
2023-01-29T16:44:47.201Z,47.35
2023-01-29T16:48:02.484Z,40.78
2023-01-29T16:51:29.280Z,32.40
2023-01-29T16:54:32.555Z,37.42
2023-01-29T16:57:35.544Z,39.47
2023-01-29T17:00:38.863Z,28.00
2023-01-29T17:03:43.264Z,37.45
2023-01-29T17:06:49.745Z,26.70
2023-01-29T17:09:59.911Z,27.63
2023-01-29T17:13:07.815Z,42.58
2023-01-29T17:16:25.094Z,39.97
2023-01-29T17:22:31.761Z,70.25
2023-01-29T17:25:34.746Z,71.80
2023-01-29T17:28:37.983Z,60.22
2023-01-29T17:31:41.191Z,64.65
2023-01-29T17:34:44.903Z,64.65
2023-01-29T17:37:49.389Z,70.07
2023-01-29T17:40:56.507Z,51.38
2023-01-29T17:43:59.885Z,43.05
2023-01-29T17:47:03.777Z,43.97
2023-01-29T17:50:21.305Z,49.97
2023-01-29T17:56:33.950Z,31.38
2023-01-29T17:59:37.145Z,35.10
2023-01-29T18:02:40.736Z,36.67
2023-01-29T18:05:49.176Z,76.80
2023-01-29T18:08:53.041Z,65.03
2023-01-29T18:11:56.199Z,63.53
2023-01-29T18:14:59.761Z,69.85
2023-01-29T18:18:03.357Z,90.50
2023-01-29T18:21:06.837Z,86.07
2023-01-29T18:24:10.186Z,72.88
2023-01-29T18:27:13.295Z,66.05
2023-01-29T18:30:17.148Z,74.32
2023-01-29T18:33:20.822Z,62.63
2023-01-29T18:36:25.068Z,57.40
2023-01-29T18:39:28.272Z,68.00
2023-01-29T18:42:34.187Z,49.08
2023-01-29T18:45:37.937Z,83.00
2023-01-29T18:48:42.761Z,78.32
2023-01-29T18:51:46.444Z,74.68
2023-01-29T18:54:50.762Z,66.00
2023-01-29T18:58:28.747Z,63.60
2023-01-29T19:01:18.912Z,57.08
2023-01-29T19:04:21.921Z,56.25
2023-01-29T19:07:25.695Z,45.42
2023-01-29T19:10:28.918Z,100.97
2023-01-29T19:13:33.495Z,78.85
2023-01-29T19:16:36.972Z,95.28
2023-01-29T19:19:40.322Z,78.43
2023-01-29T19:22:44.835Z,78.03
2023-01-29T19:25:48.196Z,77.55
2023-01-29T19:28:51.891Z,63.83
2023-01-29T19:31:55.181Z,66.03
2023-01-29T19:34:59.174Z,62.63
2023-01-29T19:38:03.311Z,55.67
2023-01-29T19:41:07.294Z,56.17
2023-01-29T19:44:12.430Z,52.97
2023-01-29T19:47:16.272Z,45.67
2023-01-29T19:50:19.963Z,50.78
2023-01-29T19:53:23.635Z,53.17
2023-01-29T19:56:26.880Z,63.20
2023-01-29T19:59:30.455Z,64.00
2023-01-29T20:02:34.464Z,61.63
2023-01-29T20:05:38.083Z,67.20
2023-01-29T20:08:41.170Z,72.03
2023-01-29T20:11:44.778Z,74.45
2023-01-29T20:14:49.823Z,72.55
2023-01-29T20:17:52.712Z,66.05
2023-01-29T20:20:56.830Z,66.30
2023-01-29T20:24:00.557Z,55.92
2023-01-29T20:27:04.230Z,49.35
2023-01-29T20:30:09.072Z,41.63
2023-01-29T20:33:13.344Z,44.17
2023-01-29T20:36:16.911Z,43.30
2023-01-29T20:39:20.184Z,40.30
2023-01-29T20:42:23.597Z,54.38
2023-01-29T20:45:27.609Z,39.42
2023-01-29T20:48:32.204Z,45.83
2023-01-29T20:51:35.668Z,57.33
2023-01-29T20:54:39.324Z,43.13
2023-01-29T20:57:43.729Z,38.67
2023-01-29T21:01:15.983Z,38.80
2023-01-29T21:04:19.732Z,32.17
2023-01-29T21:07:23.136Z,31.92
2023-01-29T21:10:25.990Z,32.05
2023-01-29T21:13:28.976Z,31.63
2023-01-29T21:16:32.715Z,36.20
2023-01-29T21:19:36.064Z,35.17
2023-01-29T21:22:39.488Z,36.95
2023-01-29T21:25:43.116Z,31.73
2023-01-29T21:28:47.074Z,40.60
2023-01-29T21:31:51.100Z,33.03
2023-01-29T21:34:54.969Z,35.97
2023-01-29T21:37:57.957Z,32.72
2023-01-29T21:41:05.895Z,34.95
2023-01-29T21:44:09.084Z,33.38
2023-01-29T21:47:15.582Z,36.70
2023-01-29T21:50:18.829Z,38.05
2023-01-29T21:53:23.226Z,41.78
2023-01-29T21:56:26.551Z,36.42
2023-01-29T21:59:30.154Z,28.77
2023-01-29T22:02:33.865Z,38.28
2023-01-29T22:05:36.910Z,37.92
2023-01-29T22:08:41.238Z,27.83
2023-01-29T22:11:44.417Z,32.45
2023-01-29T22:14:48.311Z,31.20
2023-01-29T22:17:52.343Z,33.08
2023-01-29T22:20:56.611Z,32.80
2023-01-29T22:23:59.525Z,33.53
2023-01-29T22:27:02.811Z,36.42
2023-01-29T22:30:07.140Z,30.85
2023-01-29T22:33:11.395Z,38.60
2023-01-29T22:36:14.644Z,37.50
2023-01-29T22:39:17.959Z,34.88
2023-01-29T22:42:21.288Z,35.70
2023-01-29T22:45:25.459Z,35.10
2023-01-29T22:48:29.145Z,39.90
2023-01-29T22:51:40.215Z,46.25
2023-01-29T22:54:44.457Z,48.42
2023-01-29T22:57:50.650Z,50.95
2023-01-29T23:00:53.524Z,57.70
2023-01-29T23:03:56.896Z,54.25
2023-01-29T23:06:59.837Z,57.05
2023-01-29T23:10:05.171Z,53.35
2023-01-29T23:13:09.124Z,47.15
2023-01-29T23:16:14.341Z,50.15
2023-01-29T23:19:18.171Z,49.97
2023-01-29T23:22:21.230Z,50.28
2023-01-29T23:25:44.268Z,41.95
2023-01-29T23:28:48.301Z,41.33
2023-01-29T23:31:51.370Z,47.88
2023-01-29T23:34:55.216Z,42.92
2023-01-29T23:37:58.917Z,38.92
2023-01-29T23:41:02.058Z,40.03
2023-01-29T23:44:05.665Z,42.03
2023-01-29T23:47:10.161Z,43.88
2023-01-29T23:50:13.646Z,40.00
2023-01-29T23:53:17.313Z,47.30
2023-01-29T23:56:20.431Z,44.65
2023-01-29T23:59:24.545Z,37.08
